Latest Weather Observations for Hamilton

IDV60801

Issued at 5:02 am EDT Friday 19 December 2014 (issued every 30 minutes, with the page automatically refreshed every 10 minutes)

About weather observations | Map of weather stations | Latest weather observations for VIC | Other Formats
Station Details ID: 090173 Name: HAMILTON AIRPORT Lat: -37.65 Lon: 142.06 Height: 241.1 m
Data from the previous 72 hours. | See also: Recent months at Hamilton
Date/Time
EDT
Temp
°C
App
Temp
°C
Dew
Point
Rel
Hum
%
Delta-T
°C
Wind Press
QNH
hPa
Press
MSL
hPa
Rain
since 9 am
mm
Dir
 
Spd
km/h
Gust
km/h
Spd
kts
Gust
kts
19/05:00am 6.4 4.0 5.2 92 0.5 W 7 9 4 5 1016.2 1015.7 3.2
19/04:30am 7.3 4.7 6.1 92 0.5 W 9 9 5 5 1016.0 1015.5 3.2
19/04:00am 7.4 4.8 6.3 93 0.5 W 9 11 5 6 1015.7 1015.2 3.2
19/03:30am 7.7 5.2 6.5 92 0.6 W 9 13 5 7 1015.6 1015.1 3.2
19/03:00am 8.1 5.6 6.7 91 0.7 WNW 9 11 5 6 1015.5 1015.0 3.2
19/02:30am 8.4 6.0 6.9 90 0.7 W 9 15 5 8 1015.7 1015.2 3.2
19/02:00am 9.0 6.3 7.3 89 0.8 WSW 11 15 6 8 1015.7 1015.2 3.2
19/01:30am 9.4 5.3 7.8 90 0.8 WSW 19 30 10 16 1015.9 1015.4 3.2
19/01:00am 8.8 6.3 6.6 86 1.0 W 9 13 5 7 1015.6 1015.1 3.2
19/12:30am 9.1 6.2 6.7 85 1.1 W 11 13 6 7 1015.5 1015.0 3.2
19/12:00am 8.7 6.5 6.2 84 1.2 W 7 9 4 5 1015.4 1014.9 3.2
 
Date/Time
EDT
Temp
°C
App
Temp
°C
Dew
Point
Rel
Hum
%
Delta-T
°C
Wind Press
QNH
hPa
Press
MSL
hPa
Rain
since 9 am
mm
Dir
 
Spd
km/h
Gust
km/h
Spd
kts
Gust
kts
18/11:30pm 9.0 6.8 6.3 83 1.3 W 7 9 4 5 1015.1 1014.7 3.2
18/11:00pm 9.5 7.0 6.6 82 1.4 WSW 9 11 5 6 1015.0 1014.6 3.2
18/10:30pm 9.5 6.2 6.2 80 1.5 SW 13 17 7 9 1014.9 1014.5 3.2
18/10:00pm 10.1 6.4 6.4 78 1.7 SSW 15 17 8 9 1014.6 1014.2 3.2
18/09:30pm 11.1 7.4 6.5 73 2.2 SSW 15 20 8 11 1014.3 1013.9 3.2
18/09:00pm 12.0 8.1 6.9 71 2.5 SSW 17 22 9 12 1014.0 1013.5 3.2
18/08:30pm 12.9 8.6 6.9 67 2.9 SSW 19 22 10 12 1013.6 1013.1 3.2
18/08:00pm 14.0 8.0 7.1 63 3.4 SSW 28 33 15 18 1013.0 1012.5 3.2
18/07:30pm 15.4 8.6 7.7 60 3.9 SW 33 41 18 22 1012.2 1011.7 3.2
18/07:00pm 16.9 10.5 7.0 52 5.0 SW 30 43 16 23 1011.7 1011.2 3.2
18/06:30pm 16.6 9.7 7.3 54 4.7 SW 33 41 18 22 1011.3 1010.8 3.2
18/06:00pm 16.1 9.3 7.6 57 4.3 SW 33 44 18 24 1011.2 1010.7 3.2
18/05:30pm 17.2 9.6 9.1 59 4.3 WSW 39 48 21 26 1010.7 1010.3 3.2
18/05:00pm 16.6 9.5 9.5 63 3.7 SW 37 46 20 25 1010.3 1009.8 3.2
18/04:41pm 15.4 9.1 9.1 66 3.3 WSW 32 54 17 29 1010.1 1009.6 3.2
18/04:40pm 16.1 9.8 8.8 62 3.8 WSW 32 54 17 29 1010.0 1009.5 3.2
18/04:30pm 18.1 11.4 7.2 49 5.5 WSW 32 43 17 23 1009.5 1009.0 3.2
18/04:00pm 17.1 11.8 9.8 62 3.9 WSW 28 39 15 21 1009.5 1009.0 3.2
18/03:30pm 14.8 8.5 11.2 79 1.9 SW 35 46 19 25 1009.6 1009.1 3.2
18/03:10pm 14.1 9.0 10.7 80 1.8 SW 28 54 15 29 1009.1 1008.6 3.2
18/03:00pm 14.8 10.4 11.8 82 1.6 SW 26 35 14 19 1008.9 1008.4 3.2
18/02:30pm 15.3 13.0 14.7 96 0.3 WSW 20 28 11 15 1008.6 1008.1 3.0
18/02:00pm 13.1 10.2 12.3 95 0.4 WSW 19 24 10 13 1008.8 1008.3 3.0
18/01:56pm 12.9 9.9 12.0 94 0.5 W 19 26 10 14 1008.8 1008.3 3.0
18/01:42pm 12.4 6.7 11.0 91 0.7 WSW 32 41 17 22 1008.7 1008.2 2.2
18/01:31pm 14.2 10.1 12.6 90 0.9 WSW 26 33 14 18 1008.3 1007.8 1.4
18/01:30pm 14.4 10.0 12.8 90 0.9 WSW 28 33 15 18 1008.3 1007.8 1.4
18/01:11pm 14.7 10.9 13.7 94 0.6 W 26 37 14 20 1008.1 1007.6 1.4
18/01:00pm 13.5 9.4 12.6 94 0.5 W 26 37 14 20 1008.2 1007.7 1.4
18/12:30pm 12.8 8.8 11.7 93 0.6 W 24 35 13 19 1008.2 1007.7 1.0
18/12:27pm 12.7 7.9 11.6 93 0.6 W 28 43 15 23 1008.2 1007.7 0.6
18/12:13pm 12.8 5.0 11.0 89 1.0 W 43 59 23 32 1008.0 1007.5 0.2
18/12:08pm 13.1 5.4 10.3 83 1.5 W 41 59 22 32 1007.7 1007.2 0.2
18/12:03pm 15.1 8.9 9.9 71 2.7 WNW 33 59 18 32 1007.4 1006.9 0.2
18/12:00pm 15.9 9.7 10.2 69 3.0 WNW 33 48 18 26 1007.2 1006.7 0.2
18/11:52am 18.6 12.4 7.7 49 5.6 WNW 30 48 16 26 1006.8 1006.2 0.2
18/11:30am 18.8 13.2 8.7 52 5.3 WNW 28 39 15 21 1006.9 1006.3 0.2
18/11:00am 17.1 11.5 10.0 63 3.8 WNW 30 39 16 21 1007.6 1007.1 0.2
18/10:30am 15.3 10.8 11.3 77 2.2 NW 26 35 14 19 1007.5 1007.0 0.2
18/10:00am 13.3 9.6 11.5 89 1.0 WNW 22 33 12 18 1007.8 1007.3 0.2
18/09:59am 13.3 9.7 11.7 90 0.9 WNW 22 33 12 18 1007.8 1007.3 0.2
18/09:42am 13.0 7.7 10.0 82 1.6 WNW 28 35 15 19 1007.9 1007.4 0.0
18/09:30am 15.3 9.8 9.0 66 3.3 NW 28 37 15 20 1007.5 1007.0 0.0
18/09:00am 14.8 9.1 8.5 66 3.2 NW 28 37 15 20 1007.4 1006.9 0.0
18/08:30am 14.4 10.2 8.1 66 3.2 NW 20 26 11 14 1007.3 1006.8 0.0
18/08:00am 11.3 7.5 7.6 78 1.8 N 17 20 9 11 1007.0 1006.4 0.0
18/07:30am 9.8 6.3 7.4 85 1.2 NNW 15 17 8 9 1006.9 1006.3 0.0
18/07:00am 7.3 4.0 6.2 93 0.5 N 13 13 7 7 1006.7 1006.1 0.0
18/06:30am 5.2 1.8 4.0 92 0.5 NNW 11 13 6 7 1006.4 1005.9 0.0
18/06:00am 5.0 1.5 3.7 91 0.6 NNW 11 13 6 7 1006.1 1005.6 0.0
18/05:30am 5.2 2.1 3.7 90 0.6 NNW 9 9 5 5 1006.0 1005.5 0.0
18/05:00am 5.0 2.2 3.2 88 0.8 NNW 7 9 4 5 1005.7 1005.2 0.0
18/04:30am 4.8 1.5 2.5 85 0.9 N 9 11 5 6 1005.5 1005.0 0.0
18/04:00am 7.4 6.2 4.5 82 1.3 CALM 0 0 0 0 1005.8 1005.3 0.0
18/03:30am 8.4 6.2 5.3 81 1.4 ESE 6 9 3 5 1005.9 1005.4 0.0
18/03:00am 7.4 4.9 4.5 82 1.3 SE 7 9 4 5 1006.3 1005.8 0.0
18/02:30am 7.9 5.1 5.0 82 1.3 SE 9 11 5 6 1006.9 1006.3 0.0
18/02:00am 8.7 6.0 5.6 81 1.4 ESE 9 11 5 6 1006.9 1006.3 0.0
18/01:30am 7.9 5.1 5.0 82 1.3 ESE 9 11 5 6 1007.2 1006.7 0.0
18/01:00am 7.5 5.0 5.0 84 1.1 SE 7 9 4 5 1007.4 1006.9 0.0
18/12:30am 7.8 4.2 5.1 83 1.2 ESE 13 15 7 8 1007.6 1007.1 0.0
18/12:00am 8.6 4.8 5.7 82 1.3 E 15 15 8 8 1007.6 1007.1 0.0
 
Date/Time
EDT
Temp
°C
App
Temp
°C
Dew
Point
Rel
Hum
%
Delta-T
°C
Wind Press
QNH
hPa
Press
MSL
hPa
Rain
since 9 am
mm
Dir
 
Spd
km/h
Gust
km/h
Spd
kts
Gust
kts
17/11:30pm 8.8 5.7 5.5 80 1.5 ESE 11 13 6 7 1008.1 1007.6 0.0
17/11:00pm 9.1 5.7 5.7 79 1.6 ESE 13 15 7 8 1008.2 1007.7 0.0
17/10:30pm 9.5 6.3 4.9 73 2.1 SE 11 13 6 7 1008.2 1007.7 0.0
17/10:00pm 10.6 7.4 5.2 69 2.5 SE 11 13 6 7 1008.3 1007.8 0.0
17/09:30pm 12.2 8.8 5.8 65 3.0 SSE 13 15 7 8 1008.2 1007.7 0.0
17/09:00pm 14.0 9.9 6.4 60 3.7 SE 17 22 9 12 1008.0 1007.5 0.0
17/08:30pm 15.8 11.2 6.5 54 4.6 SSE 20 24 11 13 1008.0 1007.5 0.0
17/08:00pm 17.4 12.8 6.3 48 5.5 SSE 20 28 11 15 1007.6 1007.1 0.0
17/07:30pm 19.0 13.9 6.1 43 6.5 S 22 32 12 17 1007.1 1006.5 0.0
17/07:00pm 20.8 16.0 4.4 34 8.1 SW 19 30 10 16 1006.9 1006.3 0.0
17/06:30pm 21.2 17.7 3.4 31 8.6 WSW 11 20 6 11 1006.8 1006.2 0.0
17/06:00pm 21.3 17.4 3.5 31 8.6 WSW 13 28 7 15 1007.0 1006.4 0.0
17/05:30pm 21.4 17.2 3.6 31 8.6 WNW 15 28 8 15 1007.1 1006.5 0.0
17/05:00pm 20.8 17.2 3.1 31 8.5 W 11 28 6 15 1007.4 1006.9 0.0
17/04:30pm 21.2 16.0 3.4 31 8.6 W 20 32 11 17 1007.8 1007.3 0.0
17/04:00pm 20.8 15.7 3.1 31 8.5 WSW 19 35 10 19 1007.7 1007.2 0.0
17/03:30pm 18.9 13.8 3.1 35 7.5 SW 19 39 10 21 1008.0 1007.5 0.0
17/03:00pm 19.3 14.3 3.5 35 7.6 WSW 19 33 10 18 1008.4 1007.9 0.0
17/02:30pm 19.2 13.2 3.4 35 7.5 W 24 32 13 17 1008.7 1008.2 0.0
17/02:00pm 19.9 15.4 4.0 35 7.7 W 17 33 9 18 1008.9 1008.4 0.0
17/01:30pm 19.3 14.1 3.5 35 7.5 W 20 35 11 19 1009.0 1008.5 0.0
17/01:00pm 17.7 12.4 2.8 37 6.9 WNW 20 30 11 16 1009.3 1008.8 0.0
17/12:30pm 17.7 12.8 3.9 40 6.6 W 19 30 10 16 1009.5 1009.0 0.0
17/12:00pm 17.2 12.0 3.8 41 6.3 W 20 32 11 17 1009.5 1009.0 0.0
17/11:30am 17.1 12.0 3.1 39 6.5 W 19 32 10 17 1009.6 1009.1 0.0
17/11:00am 16.3 11.7 3.7 43 5.9 W 17 28 9 15 1009.7 1009.2 0.0
17/10:30am 15.2 10.7 4.0 47 5.2 W 17 26 9 14 1009.9 1009.4 0.0
17/10:00am 14.9 10.3 3.7 47 5.2 W 17 24 9 13 1010.1 1009.6 0.0
17/09:30am 13.6 9.7 5.3 57 3.9 W 15 22 8 12 1010.3 1009.8 0.0
17/09:00am 13.2 10.8 6.8 65 3.1 WNW 9 17 5 9 1010.2 1009.7 0.6
17/08:30am 11.5 8.9 7.6 77 1.9 NW 11 13 6 7 1010.2 1009.7 0.6
17/08:00am 9.5 7.0 8.3 92 0.6 NNW 11 15 6 8 1010.0 1009.5 0.6
17/07:30am 8.1 5.5 7.8 98 0.1 N 11 13 6 7 1009.7 1009.2 0.6
17/07:00am 6.3 3.3 6.0 98 0.1 N 11 13 6 7 1009.2 1008.7 0.6
17/06:30am 4.8 1.9 4.4 97 0.2 N 9 9 5 5 1008.7 1008.2 0.6
17/06:00am 5.0 1.7 4.6 97 0.2 NNW 11 13 6 7 1008.4 1007.9 0.6
17/05:30am 4.7 1.7 4.0 95 0.3 NNW 9 11 5 6 1007.8 1007.3 0.6
17/05:00am 5.4 2.9 4.7 95 0.3 NNW 7 9 4 5 1007.4 1006.9 0.6
17/04:30am 4.8 1.7 3.8 93 0.4 NNW 9 11 5 6 1007.3 1006.8 0.6
17/04:00am 6.5 4.1 5.1 91 0.6 NW 7 7 4 4 1007.1 1006.5 0.6
17/03:30am 7.2 4.9 5.7 90 0.7 NW 7 9 4 5 1007.2 1006.7 0.6
17/03:00am 7.0 4.7 5.5 90 0.7 NW 7 7 4 4 1007.1 1006.5 0.6
17/02:30am 7.0 4.2 5.3 89 0.8 NW 9 13 5 7 1007.3 1006.8 0.6
17/02:00am 7.3 4.5 5.1 86 1.0 WNW 9 13 5 7 1007.2 1006.7 0.6
17/01:30am 8.2 5.2 5.8 85 1.1 W 11 13 6 7 1007.4 1006.9 0.6
17/01:00am 7.7 4.5 5.3 85 1.1 WNW 11 13 6 7 1007.4 1006.9 0.6
17/12:30am 8.2 5.5 5.7 84 1.1 NW 9 11 5 6 1007.2 1006.7 0.6
17/12:00am 8.7 5.2 5.3 79 1.6 WNW 13 15 7 8 1007.1 1006.5 0.6
 
Date/Time
EDT
Temp
°C
App
Temp
°C
Dew
Point
Rel
Hum
%
Delta-T
°C
Wind Press
QNH
hPa
Press
MSL
hPa
Rain
since 9 am
mm
Dir
 
Spd
km/h
Gust
km/h
Spd
kts
Gust
kts
16/11:30pm 9.7 6.3 5.9 77 1.8 W 13 17 7 9 1006.9 1006.3 0.6
16/11:00pm 10.0 6.2 6.0 76 1.9 W 15 19 8 10 1006.9 1006.3 0.6
16/10:30pm 10.2 6.4 5.8 74 2.1 WSW 15 19 8 10 1006.7 1006.1 0.6
16/10:00pm 10.7 6.5 5.7 71 2.3 WSW 17 24 9 13 1006.3 1005.8 0.6
16/09:30pm 11.5 6.8 6.0 69 2.6 SW 20 26 11 14 1005.8 1005.3 0.6
16/09:00pm 12.2 6.6 5.4 63 3.2 WSW 24 35 13 19 1005.3 1004.8 0.6
16/08:31pm 13.0 5.7 4.7 57 3.9 WSW 32 50 17 27 1004.8 1004.3 0.6
16/08:30pm 13.1 5.7 4.8 57 3.9 WSW 33 50 18 27 1004.8 1004.3 0.6
16/08:00pm 14.3 5.6 4.3 51 4.7 WSW 39 52 21 28 1004.2 1003.7 0.6
16/07:38pm 14.6 6.1 5.1 53 4.5 WSW 39 57 21 31 1003.7 1003.2 0.6
16/07:30pm 14.7 5.2 4.7 51 4.7 WSW 44 57 24 31 1003.6 1003.1 0.6
16/07:00pm 15.3 5.8 3.8 46 5.4 WSW 43 61 23 33 1002.8 1002.2 0.6
16/06:50pm 15.8 6.7 4.2 46 5.5 WSW 41 61 22 33 1002.7 1002.1 0.6
16/06:30pm 15.5 7.6 6.2 54 4.6 WSW 37 52 20 28 1002.2 1001.6 0.6
16/06:00pm 15.5 8.7 7.8 60 3.9 W 33 44 18 24 1001.8 1001.3 0.6
16/05:47pm 12.9 2.8 7.4 69 2.7 WSW 50 72 27 39 1001.6 1001.1 0.6
16/05:43pm 14.5 4.7 7.1 61 3.7 WSW 48 72 26 39 1001.3 1000.8 0.6
16/05:41pm 16.1 6.9 6.5 53 4.8 WSW 44 72 24 39 1001.0 1000.5 0.6
16/05:30pm 16.2 7.1 6.9 54 4.6 WSW 44 57 24 31 1000.8 1000.3 0.6
16/05:06pm 17.9 8.8 6.1 46 5.9 W 43 65 23 35 1000.4 999.9 0.6
16/05:00pm 16.5 7.2 7.7 56 4.5 WSW 46 57 25 31 1000.5 1000.0 0.6
16/04:30pm 15.1 4.2 7.2 59 3.9 WSW 54 74 29 40 1000.3 999.8 0.6
16/04:27pm 15.4 5.6 7.2 58 4.1 W 48 74 26 40 999.9 999.3 0.6
16/04:00pm 16.6 9.4 10.7 68 3.2 W 39 57 21 31 999.5 998.9 0.6
16/03:51pm 15.7 9.0 11.1 74 2.5 W 37 56 20 30 999.3 998.7 0.6
16/03:30pm 13.5 5.2 10.1 80 1.8 W 44 74 24 40 999.5 998.9 0.6
16/03:26pm 13.2 4.1 9.8 80 1.8 W 48 85 26 46 999.5 998.9 0.6
16/03:21pm 14.3 5.9 9.7 74 2.4 WNW 44 85 24 46 999.0 998.4 0.4
16/03:20pm 14.8 7.2 10.4 75 2.3 WNW 41 85 22 46 998.8 998.2 0.4
16/03:19pm 15.4 8.4 11.2 76 2.3 WNW 39 61 21 33 998.9 998.3 0.4
16/03:00pm 15.3 10.3 13.3 88 1.1 WNW 32 43 17 23 998.7 998.1 0.4
16/02:38pm 14.3 7.9 13.2 93 0.6 WNW 39 57 21 31 998.6 998.0 0.4
16/02:37pm 14.5 8.2 13.5 94 0.6 WNW 39 56 21 30 998.6 998.0 0.4
16/02:30pm 14.2 7.8 13.2 94 0.6 W 39 57 21 31 998.6 998.0 0.4
16/02:28pm 14.3 7.9 13.3 94 0.6 W 39 57 21 31 998.6 998.0 0.4
16/02:22pm 14.2 7.4 13.1 93 0.6 W 41 57 22 31 998.5 997.9 0.0
16/02:20pm 14.2 7.0 13.1 93 0.6 W 43 57 23 31 998.6 998.0 0.0
16/02:01pm 15.2 7.7 12.0 81 1.8 W 43 76 23 41 997.7 997.2 0.0
16/02:00pm 15.4 7.7 11.6 78 2.1 W 43 76 23 41 997.5 997.0 0.0
16/01:59pm 15.6 7.6 11.2 75 2.4 WNW 44 76 24 41 997.3 996.8 0.0
16/01:56pm 19.0 11.2 11.1 60 4.4 WNW 43 76 23 41 997.0 996.5 0.0
16/01:30pm 20.8 13.0 8.1 44 6.7 NW 39 54 21 29 996.2 995.6 0.0
16/01:00pm 21.9 14.7 7.7 40 7.5 WNW 35 44 19 24 996.4 995.8 0.0
16/12:30pm 21.1 14.5 7.7 42 7.0 WNW 32 44 17 24 996.8 996.3 0.0
16/12:00pm 20.1 14.7 8.1 46 6.3 W 26 41 14 22 997.4 996.9 0.0
16/11:30am 19.6 13.7 9.2 51 5.5 W 30 43 16 23 997.9 997.3 0.0
16/11:00am 20.1 13.8 8.8 48 6.0 WNW 32 43 17 23 997.5 997.0 0.0
16/10:34am 20.2 14.1 8.2 46 6.3 WNW 30 48 16 26 997.4 996.9 0.0
16/10:30am 20.1 13.9 7.8 45 6.4 WNW 30 39 16 21 997.4 996.9 0.0
16/10:00am 19.3 13.1 8.0 48 5.9 WNW 30 39 16 21 998.3 997.7 0.0
16/09:30am 17.6 12.2 9.5 59 4.3 WNW 28 35 15 19 998.8 998.2 0.0
16/09:00am 14.3 11.4 14.1 99 0.1 NW 22 30 12 16 999.3 998.7 0.0
16/08:59am 14.1 10.8 13.9 99 0.1 NW 24 30 13 16 999.3 998.7 0.0
16/08:30am 11.7 8.4 11.5 99 0.1 NNW 20 30 11 16 998.9 998.3 0.0
16/08:17am 11.9 8.6 11.7 99 0.1 N 20 24 11 13 998.0 997.4 0.0
16/08:00am 11.3 8.1 11.1 99 0.1 N 19 24 10 13 997.6 997.1 0.0
16/07:30am 11.2 8.3 11.0 99 0.1 N 17 20 9 11 997.6 997.1 0.0
16/07:00am 10.8 8.2 10.6 99 0.1 N 15 20 8 11 997.3 996.8 0.0
16/06:30am 11.0 9.2 10.8 99 0.1 NW 11 17 6 9 997.9 997.3 0.0
16/06:00am 11.1 8.6 10.9 99 0.1 W 15 20 8 11 998.5 997.9 0.0
16/05:30am 11.3 7.9 11.1 99 0.1 W 20 24 11 13 998.4 997.8 0.0

Other Formats:

Comma delimited format used in spreadsheet applications
http://www.bom.gov.au/fwo/IDV60801/IDV60801.94829.axf

JavaScript Object Notation format (JSON) in row-major order
http://www.bom.gov.au/fwo/IDV60801/IDV60801.94829.json